Time;durP1;ratioP1;P1;durP2;ratioP2;P2;SDS_P1;SDS_P2;PMS_P1;PMS_P2;Temp;Humidity;BMP_temperature;BMP_pressure;BME280_temperature;BME280_humidity;BME280_pressure;Samples;Min_cycle;Max_cycle;Signal;HPM_P1;HPM_P2
2021/05/16 00:00:49;;;;;;;14.53;10.90;;;;;;;18.69;66.40;99139.19;2069945;28;20034;-73
2021/05/16 00:01:49;;;;;;;15.50;9.73;;;;;;;18.69;66.49;99136.47;2070892;28;20452;-73
2021/05/16 00:02:50;;;;;;;13.47;10.27;;;;;;;18.69;66.58;99139.19;2070125;28;20477;-73
2021/05/16 00:03:51;;;;;;;15.30;10.50;;;;;;;18.69;66.41;99141.94;2067889;28;20056;-73
2021/05/16 00:04:51;;;;;;;16.40;10.27;;;;;;;18.69;66.47;99138.31;2071469;28;20253;-72
2021/05/16 00:05:52;;;;;;;15.00;9.93;;;;;;;18.68;66.53;99137.47;2071209;28;20026;-73
2021/05/16 00:06:53;;;;;;;14.27;10.73;;;;;;;18.69;66.40;99139.19;2070619;28;20056;-72
2021/05/16 00:08:03;;;;;;;17.55;10.38;;;;;;;18.68;66.39;99145.66;2069947;28;20672;-72
2021/05/16 00:09:11;;;;;;;13.30;10.07;;;;;;;18.67;66.51;99141.25;2065196;28;20033;-73
2021/05/16 00:10:13;;;;;;;13.35;9.93;;;;;;;18.69;66.28;99141.94;2070097;28;20125;-72
2021/05/16 00:11:14;;;;;;;12.75;9.68;;;;;;;18.68;66.34;99132.03;2065824;28;20025;-72
2021/05/16 00:12:14;;;;;;;14.03;10.17;;;;;;;18.67;66.34;99133.06;2068831;28;20022;-72
2021/05/16 00:13:15;;;;;;;12.60;9.23;;;;;;;18.68;66.38;99134.75;2070820;28;20559;-72
2021/05/16 00:14:15;;;;;;;11.87;9.67;;;;;;;18.68;66.44;99123.81;2070839;28;20026;-72
2021/05/16 00:15:20;;;;;;;13.17;9.63;;;;;;;18.70;66.33;99123.66;2069146;28;20036;-73
2021/05/16 00:16:20;;;;;;;14.10;10.55;;;;;;;18.68;66.41;99126.56;2070642;28;20025;-73
2021/05/16 00:17:21;;;;;;;11.70;9.70;;;;;;;18.68;66.33;99117.53;2077400;28;20108;-72
2021/05/16 00:18:21;;;;;;;15.13;10.73;;;;;;;18.68;66.43;99117.53;2069187;28;20034;-72
2021/05/16 00:19:22;;;;;;;12.67;9.50;;;;;;;18.68;66.44;99115.63;2071854;28;20547;-72
2021/05/16 00:20:27;;;;;;;12.77;9.77;;;;;;;18.68;66.35;99104.72;2079009;28;20044;-73
2021/05/16 00:21:27;;;;;;;13.20;9.13;;;;;;;18.67;66.39;99105.75;2062274;28;20057;-72
2021/05/16 00:22:28;;;;;;;13.13;10.10;;;;;;;18.66;66.39;99106.75;2066225;28;20081;-73
2021/05/16 00:23:28;;;;;;;12.77;10.13;;;;;;;18.67;66.37;99113.94;2071117;28;20033;-72
2021/05/16 00:24:28;;;;;;;12.53;9.17;;;;;;;18.67;66.32;99113.06;2068315;28;20030;-73
2021/05/16 00:25:30;;;;;;;13.27;9.40;;;;;;;18.67;66.40;99110.34;2070606;28;20046;-73
2021/05/16 00:26:31;;;;;;;11.85;9.10;;;;;;;18.67;66.44;99113.94;2077409;28;20416;-73
2021/05/16 00:27:31;;;;;;;12.00;9.03;;;;;;;18.67;66.34;99103.03;2071821;28;20117;-73
2021/05/16 00:28:32;;;;;;;12.83;10.00;;;;;;;18.65;66.31;99107.81;2076796;28;20053;-73
2021/05/16 00:29:32;;;;;;;12.97;10.00;;;;;;;18.66;66.46;99109.50;2069650;28;20036;-73
2021/05/16 00:30:33;;;;;;;13.60;9.17;;;;;;;18.67;66.38;99102.16;2070462;28;20132;-73
2021/05/16 00:31:35;;;;;;;12.57;9.35;;;;;;;18.65;66.47;99105.06;2054795;28;20034;-73
2021/05/16 00:32:36;;;;;;;11.77;8.77;;;;;;;18.67;66.25;99097.56;2056676;28;20098;-73
2021/05/16 00:33:36;;;;;;;12.97;9.17;;;;;;;18.66;66.25;99097.72;2069308;28;20052;-73
2021/05/16 00:34:37;;;;;;;16.00;11.50;;;;;;;18.64;66.25;99101.50;2070485;28;20040;-73
2021/05/16 00:35:37;;;;;;;12.93;9.57;;;;;;;18.64;66.43;99093.31;2077008;28;20092;-73
2021/05/16 00:36:38;;;;;;;14.23;8.93;;;;;;;18.66;66.40;99100.47;2074334;28;20018;-72
2021/05/16 00:37:38;;;;;;;12.23;9.23;;;;;;;18.65;66.35;99096.88;2066883;28;20076;-73
2021/05/16 00:38:38;;;;;;;11.93;9.23;;;;;;;18.64;66.35;99097.88;2071402;28;20026;-73
2021/05/16 00:39:39;;;;;;;13.87;9.60;;;;;;;18.65;66.24;99094.16;2064168;28;20038;-72
2021/05/16 00:40:39;;;;;;;11.53;9.10;;;;;;;18.62;66.26;99094.50;2067452;28;20038;-73
2021/05/16 00:41:40;;;;;;;12.40;9.37;;;;;;;18.66;66.14;99095.00;2072080;28;20445;-73
2021/05/16 00:42:41;;;;;;;13.43;9.63;;;;;;;18.65;66.44;99094.16;2072472;28;20026;-73
2021/05/16 00:43:41;;;;;;;15.05;9.55;;;;;;;18.65;66.22;99094.16;2075776;28;20101;-72
2021/05/16 00:45:05;;;;;;;13.00;9.00;;;;;;;18.64;66.31;99092.44;2071008;28;20030;-73
2021/05/16 00:46:09;;;;;;;14.05;9.20;;;;;;;18.63;66.31;99090.72;2064342;28;20069;-72
2021/05/16 00:47:10;;;;;;;13.40;9.40;;;;;;;18.63;66.26;99091.59;2070395;28;20021;-73
2021/05/16 00:48:10;;;;;;;11.33;9.17;;;;;;;18.63;66.34;99090.72;2071901;28;20037;-73
2021/05/16 00:49:11;;;;;;;12.77;9.60;;;;;;;18.63;66.15;99096.19;2078567;28;20107;-73
2021/05/16 00:50:12;;;;;;;15.07;11.47;;;;;;;18.62;66.45;99091.78;2077303;28;20817;-72
2021/05/16 00:51:13;;;;;;;10.03;8.83;;;;;;;18.61;66.36;99087.31;2072305;28;20025;-73
2021/05/16 00:52:13;;;;;;;11.10;8.07;;;;;;;18.62;66.28;99083.59;2071427;28;20482;-73
2021/05/16 00:53:19;;;;;;;10.70;8.23;;;;;;;18.62;66.19;99089.03;2075281;28;20040;-72
2021/05/16 00:54:20;;;;;;;12.18;8.68;;;;;;;18.62;66.08;99089.03;2063977;28;20037;-73
2021/05/16 00:55:21;;;;;;;12.20;9.13;;;;;;;18.62;66.22;99081.69;2065035;28;20041;-73
2021/05/16 00:56:22;;;;;;;12.02;9.00;;;;;;;18.63;66.26;99082.53;2072098;28;20026;-72
2021/05/16 00:57:22;;;;;;;10.73;8.23;;;;;;;18.63;66.16;99074.34;2072101;28;20040;-73
2021/05/16 00:58:24;;;;;;;13.17;8.87;;;;;;;18.64;66.12;99070.59;2075357;28;20734;-73
2021/05/16 00:59:25;;;;;;;11.85;9.13;;;;;;;18.62;66.13;99078.13;2073203;28;20025;-73
2021/05/16 01:00:32;;;;;;;12.60;9.27;;;;;;;18.62;66.03;99078.13;2078070;28;20109;-71
2021/05/16 01:01:33;;;;;;;11.95;9.65;;;;;;;18.64;66.15;99081.50;2074924;28;20026;-73
2021/05/16 01:02:33;;;;;;;10.53;7.50;;;;;;;18.62;66.19;99075.41;2072217;28;20060;-73
2021/05/16 01:03:34;;;;;;;13.77;9.50;;;;;;;18.62;65.93;99080.84;2070527;28;20165;-73
2021/05/16 01:04:36;;;;;;;13.97;9.87;;;;;;;18.63;66.25;99082.53;2071471;28;20127;-73
2021/05/16 01:05:38;;;;;;;11.65;8.20;;;;;;;18.62;66.02;99078.13;2067695;28;20072;-73
2021/05/16 01:06:38;;;;;;;12.32;9.23;;;;;;;18.63;66.04;99079.81;2065066;28;20135;-71
2021/05/16 01:07:40;;;;;;;12.23;8.30;;;;;;;18.62;66.09;99080.84;2071824;28;20080;-71
2021/05/16 01:08:40;;;;;;;12.25;8.57;;;;;;;18.60;66.17;99075.56;2071447;28;20108;-71
2021/05/16 01:09:42;;;;;;;15.07;9.63;;;;;;;18.60;66.07;99070.09;2070888;28;20034;-73
2021/05/16 01:10:45;;;;;;;11.63;8.15;;;;;;;18.60;66.10;99070.09;2077824;28;20030;-71
2021/05/16 01:11:46;;;;;;;11.15;8.35;;;;;;;18.59;66.09;99067.53;2072141;28;20076;-72
2021/05/16 01:12:51;;;;;;;11.30;8.32;;;;;;;18.60;66.04;99058.34;2071788;28;20036;-71
2021/05/16 01:13:51;;;;;;;12.95;8.05;;;;;;;18.60;66.02;99061.06;2071798;28;20034;-71
2021/05/16 01:14:55;;;;;;;12.53;9.30;;;;;;;18.61;66.10;99065.47;2070442;28;20033;-71
2021/05/16 01:15:55;;;;;;;10.45;8.52;;;;;;;18.60;65.81;99058.34;2071617;28;20010;-71
2021/05/16 01:16:56;;;;;;;12.47;8.73;;;;;;;18.60;66.01;99055.59;2072985;28;20100;-72
2021/05/16 01:17:57;;;;;;;10.33;8.37;;;;;;;18.60;65.91;99061.06;2071441;28;20041;-71
2021/05/16 01:18:58;;;;;;;11.77;9.18;;;;;;;18.59;66.01;99054.75;2063786;28;20033;-72
2021/05/16 01:19:58;;;;;;;11.73;8.40;;;;;;;18.60;66.10;99063.78;2063149;28;20073;-72
2021/05/16 01:20:59;;;;;;;12.23;8.87;;;;;;;18.60;65.95;99052.88;2071871;28;20507;-73
2021/05/16 01:22:00;;;;;;;11.17;8.07;;;;;;;18.58;66.01;99054.91;2068707;28;20450;-71
2021/05/16 01:23:01;;;;;;;12.45;9.02;;;;;;;18.59;66.10;99052.03;2070597;28;20029;-71
2021/05/16 01:24:04;;;;;;;11.90;9.30;;;;;;;18.61;65.95;99054.56;2062679;28;20034;-72
2021/05/16 01:25:05;;;;;;;14.20;9.07;;;;;;;18.62;66.00;99045.38;2060106;28;20033;-72
2021/05/16 01:26:07;;;;;;;10.13;8.18;;;;;;;18.59;66.03;99043.84;2072232;28;20041;-72
2021/05/16 01:27:12;;;;;;;12.38;9.48;;;;;;;18.59;66.08;99048.41;2071981;28;20102;-72
2021/05/16 01:28:15;;;;;;;10.88;7.72;;;;;;;18.60;65.98;99050.16;2071651;28;20053;-72
2021/05/16 01:29:17;;;;;;;11.40;8.80;;;;;;;18.59;66.11;99056.59;2072096;28;20036;-72
2021/05/16 01:30:20;;;;;;;10.60;8.93;;;;;;;18.58;66.00;99050.31;2071210;28;20037;-72
2021/05/16 01:31:21;;;;;;;11.55;8.25;;;;;;;18.59;66.05;99051.16;2071650;28;20438;-72
2021/05/16 01:32:24;;;;;;;10.63;8.20;;;;;;;18.60;65.92;99041.97;2070375;28;20053;-72
2021/05/16 01:33:24;;;;;;;11.55;8.98;;;;;;;18.61;65.82;99046.38;2071593;28;20030;-72
2021/05/16 01:34:26;;;;;;;11.23;8.60;;;;;;;18.59;65.86;99041.09;2072010;28;20030;-72
2021/05/16 01:35:26;;;;;;;12.02;8.27;;;;;;;18.59;65.83;99043.84;2070543;28;20397;-72
2021/05/16 01:36:27;;;;;;;10.23;8.57;;;;;;;18.59;65.80;99037.50;2071978;28;20022;-72
2021/05/16 01:37:27;;;;;;;10.43;8.37;;;;;;;18.59;65.97;99040.22;2071705;28;20088;-71
2021/05/16 01:38:46;;;;;;;11.20;8.10;;;;;;;18.57;65.93;99045.88;2071432;28;20756;-72
2021/05/16 01:39:48;;;;;;;9.52;7.45;;;;;;;18.59;66.19;99040.22;2071755;28;20089;-72
2021/05/16 01:40:49;;;;;;;;;;;;;;;18.54;66.09;99034.44;2072229;28;20028;-72
2021/05/16 01:41:49;;;;;;;13.40;9.52;;;;;;;18.54;66.08;99037.16;2071020;28;19924;-72
2021/05/16 01:42:54;;;;;;;11.17;8.10;;;;;;;18.56;66.08;99035.13;2076141;28;20029;-72
2021/05/16 01:43:55;;;;;;;11.80;9.00;;;;;;;18.56;66.10;99037.84;2075151;28;20014;-72
2021/05/16 01:45:02;;;;;;;11.25;8.23;;;;;;;18.57;65.87;99039.53;2072720;28;20022;-72
2021/05/16 01:46:04;;;;;;;11.10;8.48;;;;;;;18.57;65.99;99036.81;2069375;28;20045;-72
2021/05/16 01:47:05;;;;;;;11.35;8.10;;;;;;;18.57;65.79;99040.44;2071458;28;20034;-72
2021/05/16 01:48:06;;;;;;;12.38;8.68;;;;;;;18.59;65.76;99051.16;2062692;28;20528;-71
2021/05/16 01:49:06;;;;;;;12.07;9.33;;;;;;;18.58;65.85;99049.47;2062631;28;20436;-71
2021/05/16 01:50:13;;;;;;;12.10;9.40;;;;;;;18.57;65.96;99047.72;2062887;28;20424;-71
2021/05/16 01:51:13;;;;;;;11.57;8.80;;;;;;;18.56;65.92;99049.63;2063297;28;20033;-72
2021/05/16 01:52:14;;;;;;;11.20;8.23;;;;;;;18.57;65.94;99047.72;2071450;28;20510;-72
2021/05/16 01:53:15;;;;;;;13.30;8.57;;;;;;;18.57;65.78;99048.63;2070729;28;20104;-72
2021/05/16 01:54:16;;;;;;;12.60;8.77;;;;;;;18.58;65.81;99054.91;2062516;28;20050;-71
2021/05/16 01:55:18;;;;;;;10.37;8.43;;;;;;;18.57;65.89;99054.06;2063267;28;20027;-72
2021/05/16 01:56:28;;;;;;;11.82;9.07;;;;;;;18.57;65.82;99047.72;2065909;28;20022;-72
2021/05/16 01:57:29;;;;;;;10.75;7.72;;;;;;;18.58;65.81;99046.72;2071308;28;20026;-72
2021/05/16 01:58:31;;;;;;;11.60;8.40;;;;;;;18.57;65.88;99054.06;2070621;28;20056;-72
2021/05/16 01:59:33;;;;;;;10.98;7.88;;;;;;;18.57;65.93;99050.47;2075301;28;20041;-72
2021/05/16 02:00:39;;;;;;;12.57;8.68;;;;;;;18.57;65.77;99054.06;2070496;28;20109;-72
2021/05/16 02:01:41;;;;;;;9.68;8.38;;;;;;;18.58;65.76;99054.91;2064332;28;20026;-72
2021/05/16 02:02:43;;;;;;;9.82;8.20;;;;;;;18.57;65.75;99050.47;2071413;28;20139;-71
2021/05/16 02:03:45;;;;;;;11.60;8.85;;;;;;;18.57;65.64;99042.28;2068162;28;20034;-72
2021/05/16 02:04:46;;;;;;;11.95;8.52;;;;;;;18.58;65.75;99044.00;2066747;28;20019;-71
2021/05/16 02:05:50;;;;;;;9.38;7.22;;;;;;;18.57;65.77;99031.34;2069281;28;20031;-71
2021/05/16 02:06:52;;;;;;;10.02;7.80;;;;;;;18.57;65.76;99037.69;2072015;28;20396;-72
2021/05/16 02:07:53;;;;;;;10.93;8.20;;;;;;;18.56;65.74;99041.44;2063443;28;20612;-72
2021/05/16 02:08:54;;;;;;;10.40;8.10;;;;;;;18.58;65.79;99049.47;2070107;28;20025;-72
2021/05/16 02:09:54;;;;;;;10.27;7.87;;;;;;;18.56;65.71;99038.69;2069967;28;20053;-72
2021/05/16 02:10:55;;;;;;;10.03;8.70;;;;;;;18.57;65.67;99036.81;2065085;28;20761;-72
2021/05/16 02:11:55;;;;;;;9.70;7.57;;;;;;;18.58;65.83;99033.09;2070710;28;20101;-72
2021/05/16 02:12:56;;;;;;;11.63;8.23;;;;;;;18.57;65.76;99026.78;2069824;28;20029;-71
2021/05/16 02:13:57;;;;;;;9.43;7.43;;;;;;;18.57;65.73;99028.63;2071216;28;20029;-72
2021/05/16 02:14:57;;;;;;;10.10;7.60;;;;;;;18.57;65.73;99040.44;2071017;28;20100;-72
2021/05/16 02:15:58;;;;;;;9.70;7.90;;;;;;;18.56;65.84;99040.59;2073059;28;20726;-72
2021/05/16 02:17:00;;;;;;;11.50;8.13;;;;;;;18.55;65.74;99033.44;2071018;28;20451;-72
2021/05/16 02:18:01;;;;;;;9.75;7.32;;;;;;;18.56;65.64;99035.13;2070003;28;20032;-72
2021/05/16 02:19:02;;;;;;;9.52;7.57;;;;;;;18.56;65.61;99041.44;2068277;28;20036;-72
2021/05/16 02:20:03;;;;;;;10.30;7.87;;;;;;;18.54;65.79;99035.28;2076817;28;20033;-73
2021/05/16 02:21:05;;;;;;;9.13;7.35;;;;;;;18.55;65.71;99038.91;2067436;28;20033;-72
2021/05/16 02:22:05;;;;;;;;;;;;;;;18.51;65.76;99037.53;2071442;28;20034;-71
2021/05/16 02:23:06;;;;;;;10.80;8.25;;;;;;;18.52;65.74;99028.28;2065025;28;19987;-72
2021/05/16 02:24:07;;;;;;;9.60;6.60;;;;;;;18.51;65.87;99021.16;2071296;28;20075;-71
2021/05/16 02:25:08;;;;;;;10.18;7.85;;;;;;;18.51;65.76;99027.44;2073640;28;20025;-72
2021/05/16 02:26:09;;;;;;;10.60;7.50;;;;;;;18.53;65.82;99030.88;2068077;28;20057;-72
2021/05/16 02:27:10;;;;;;;9.90;7.77;;;;;;;18.54;65.64;99027.09;2071324;28;20677;-72
2021/05/16 02:28:10;;;;;;;11.33;7.77;;;;;;;18.54;65.84;99034.44;2074842;28;20171;-72
2021/05/16 02:29:12;;;;;;;9.00;7.43;;;;;;;18.54;65.62;99020.78;2078734;28;20589;-71
2021/05/16 02:30:13;;;;;;;10.38;8.07;;;;;;;18.54;65.70;99021.66;2066244;28;20013;-72
2021/05/16 02:31:18;;;;;;;8.48;7.38;;;;;;;18.55;65.59;99025.25;2070887;28;20468;-71
2021/05/16 02:32:19;;;;;;;11.18;8.05;;;;;;;18.57;65.61;99017.72;2071057;28;20365;-72
2021/05/16 02:33:19;;;;;;;10.63;7.20;;;;;;;18.55;65.71;99017.91;2071026;28;20053;-72
2021/05/16 02:34:20;;;;;;;10.47;7.87;;;;;;;18.54;65.76;99012.59;2073445;28;20400;-72
2021/05/16 02:35:20;;;;;;;7.67;6.77;;;;;;;18.53;65.61;99014.50;2075126;28;20189;-72
2021/05/16 02:36:21;;;;;;;8.63;7.30;;;;;;;18.53;65.56;99017.22;2073823;28;20022;-72
2021/05/16 02:37:22;;;;;;;9.80;7.97;;;;;;;18.54;65.56;99015.34;2072253;28;20198;-72
2021/05/16 02:38:22;;;;;;;11.10;7.27;;;;;;;18.55;65.59;99011.59;2067778;28;20018;-72
2021/05/16 02:39:23;;;;;;;10.73;8.10;;;;;;;18.55;65.45;99008.88;2074136;28;20155;-72
2021/05/16 02:40:23;;;;;;;9.03;7.17;;;;;;;18.54;65.71;99012.59;2072141;28;20058;-72
2021/05/16 02:41:24;;;;;;;8.77;7.07;;;;;;;18.55;65.63;99012.44;2070561;28;20149;-72
2021/05/16 02:42:24;;;;;;;10.90;8.73;;;;;;;18.55;65.49;99011.59;2070473;28;20658;-72
2021/05/16 02:43:25;;;;;;;9.57;7.63;;;;;;;18.55;65.56;99017.06;2071426;28;20056;-72
2021/05/16 02:44:27;;;;;;;8.90;7.00;;;;;;;18.54;65.64;99015.34;2070562;28;20053;-72
2021/05/16 02:45:28;;;;;;;8.48;6.85;;;;;;;18.53;65.53;99002.72;2071086;28;20025;-71
2021/05/16 02:46:28;;;;;;;11.00;7.57;;;;;;;18.54;65.55;99009.88;2069322;28;20034;-72
2021/05/16 02:47:29;;;;;;;8.93;7.53;;;;;;;18.54;65.64;98996.22;2070329;28;20076;-72
2021/05/16 02:48:29;;;;;;;10.17;7.97;;;;;;;18.53;65.49;99002.72;2070776;28;20030;-72
2021/05/16 02:49:30;;;;;;;9.63;7.17;;;;;;;18.54;65.43;99009.88;2067140;28;20015;-72
2021/05/16 02:50:31;;;;;;;8.80;6.90;;;;;;;18.54;65.62;99005.25;2063522;28;20042;-72
2021/05/16 02:51:31;;;;;;;8.23;7.13;;;;;;;18.52;65.49;98996.44;2070458;28;20038;-71
2021/05/16 02:52:31;;;;;;;9.40;6.97;;;;;;;18.54;65.48;98993.50;2070500;28;20208;-72
2021/05/16 02:53:32;;;;;;;9.33;6.83;;;;;;;18.55;65.46;99003.41;2075071;28;20072;-71
2021/05/16 02:54:33;;;;;;;9.25;7.22;;;;;;;18.54;65.57;98993.50;2072781;28;21560;-72
2021/05/16 02:55:33;;;;;;;10.00;8.50;;;;;;;18.54;65.58;98993.50;2070484;28;20033;-72
2021/05/16 02:56:34;;;;;;;8.73;7.20;;;;;;;18.52;65.59;99006.47;2067513;28;20105;-71
2021/05/16 02:57:35;;;;;;;9.93;7.40;;;;;;;18.52;65.43;99001.88;2070729;28;20033;-71
2021/05/16 02:58:35;;;;;;;8.90;7.25;;;;;;;18.53;65.58;99002.72;2069516;28;20045;-71
2021/05/16 02:59:36;;;;;;;11.03;7.07;;;;;;;18.52;65.64;99001.88;2063107;28;20042;-72
2021/05/16 03:00:36;;;;;;;8.87;7.20;;;;;;;18.53;65.43;98994.53;2071253;28;20118;-72
2021/05/16 03:01:37;;;;;;;8.93;7.37;;;;;;;18.53;65.57;98986.34;2070188;28;20052;-72
2021/05/16 03:02:37;;;;;;;8.77;7.23;;;;;;;18.52;65.52;98990.97;2070810;28;20053;-71
2021/05/16 03:03:39;;;;;;;10.43;7.37;;;;;;;18.53;65.49;98989.09;2071268;28;20388;-72
2021/05/16 03:04:40;;;;;;;10.13;7.85;;;;;;;18.53;65.44;98991.81;2071559;28;20022;-72
2021/05/16 03:05:40;;;;;;;10.47;7.23;;;;;;;18.53;65.58;98989.94;2071205;28;20038;-72
2021/05/16 03:06:41;;;;;;;8.50;6.70;;;;;;;18.52;65.52;98990.09;2070398;28;20021;-72
2021/05/16 03:07:41;;;;;;;10.80;7.50;;;;;;;18.54;65.46;98996.22;2071001;28;20026;-72
2021/05/16 03:08:42;;;;;;;9.50;7.53;;;;;;;18.54;65.51;98988.03;2070525;28;20040;-73
2021/05/16 03:09:42;;;;;;;9.57;7.63;;;;;;;18.53;65.44;98986.34;2071120;28;20026;-72
2021/05/16 03:11:13;;;;;;;10.57;7.63;;;;;;;18.51;65.57;98989.25;2079413;28;20017;-72
2021/05/16 03:12:14;;;;;;;9.43;7.40;;;;;;;18.50;65.55;98986.72;2067074;28;20018;-73
2021/05/16 03:13:14;;;;;;;9.23;7.10;;;;;;;18.51;65.48;98982.94;2068108;28;20097;-73
2021/05/16 03:14:16;;;;;;;9.57;7.13;;;;;;;18.51;65.42;98988.41;2072496;28;20128;-72
2021/05/16 03:15:17;;;;;;;9.15;6.75;;;;;;;18.50;65.45;98984.81;2072356;28;20047;-72
2021/05/16 03:16:17;;;;;;;8.25;6.90;;;;;;;18.51;65.52;98988.41;2071589;28;20079;-73
2021/05/16 03:17:17;;;;;;;12.00;7.37;;;;;;;18.50;65.25;98994.91;2075050;28;20021;-73
2021/05/16 03:18:18;;;;;;;8.10;7.03;;;;;;;18.49;65.39;98995.91;2073242;28;20017;-72
2021/05/16 03:19:18;;;;;;;9.17;7.07;;;;;;;18.49;65.40;98985.84;2071716;28;20033;-73
2021/05/16 03:20:19;;;;;;;7.80;6.97;;;;;;;18.50;65.54;98982.09;2072147;28;20813;-72
2021/05/16 03:21:20;;;;;;;8.43;6.83;;;;;;;18.51;65.37;98983.78;2074493;28;20105;-73
2021/05/16 03:22:20;;;;;;;9.03;6.60;;;;;;;18.50;65.37;98983.97;2070734;28;20493;-73
2021/05/16 03:23:21;;;;;;;9.17;7.17;;;;;;;18.50;65.26;98983.97;2061217;28;20037;-73
2021/05/16 03:24:21;;;;;;;8.57;6.97;;;;;;;18.50;65.50;98983.97;2060683;28;20450;-73
2021/05/16 03:25:22;;;;;;;9.73;7.40;;;;;;;18.51;65.33;98982.94;2071503;28;20775;-73
2021/05/16 03:26:23;;;;;;;10.10;6.67;;;;;;;18.51;65.34;98977.47;2071470;28;20037;-73
2021/05/16 03:27:24;;;;;;;8.80;6.43;;;;;;;18.52;65.35;98979.19;2071788;28;20057;-73
2021/05/16 03:28:24;;;;;;;8.47;7.10;;;;;;;18.51;65.37;98983.78;2076190;28;20033;-73
2021/05/16 03:29:25;;;;;;;8.77;6.63;;;;;;;18.52;65.34;98984.63;2064128;28;20724;-72
2021/05/16 03:30:25;;;;;;;8.90;6.90;;;;;;;18.51;65.21;98988.41;2066885;28;20033;-72
2021/05/16 03:31:26;;;;;;;9.73;7.60;;;;;;;18.51;65.21;98982.94;2062983;28;20030;-72
2021/05/16 03:32:27;;;;;;;7.97;6.90;;;;;;;18.50;65.34;98976.63;2069256;28;20500;-72
2021/05/16 03:33:27;;;;;;;8.33;7.23;;;;;;;18.50;65.29;98979.38;2071078;28;20603;-73
2021/05/16 03:34:28;;;;;;;9.27;6.90;;;;;;;18.50;65.35;98970.34;2070712;28;20559;-73
2021/05/16 03:35:28;;;;;;;9.43;7.20;;;;;;;18.51;65.32;98966.56;2073447;28;20444;-73
2021/05/16 03:36:29;;;;;;;8.73;7.20;;;;;;;18.52;65.41;98962.81;2071539;28;20121;-72
2021/05/16 03:37:30;;;;;;;10.00;6.87;;;;;;;18.50;65.30;98964.88;2070299;28;20025;-73
2021/05/16 03:38:30;;;;;;;9.10;7.07;;;;;;;18.49;65.36;98958.53;2070672;28;20022;-73
2021/05/16 03:39:31;;;;;;;9.33;7.10;;;;;;;18.50;65.33;98959.41;2065827;28;20049;-72
2021/05/16 03:40:31;;;;;;;8.27;6.80;;;;;;;18.50;65.25;98954.81;2066495;28;20034;-72
2021/05/16 03:41:32;;;;;;;9.00;7.40;;;;;;;18.51;65.24;98961.13;2070276;28;20041;-73
2021/05/16 03:42:34;;;;;;;9.73;7.37;;;;;;;18.50;65.34;98953.97;2071581;28;20021;-73
2021/05/16 03:43:34;;;;;;;7.40;6.30;;;;;;;18.50;65.26;98953.97;2079059;28;20060;-73
2021/05/16 03:44:35;;;;;;;10.20;7.10;;;;;;;18.51;65.37;98961.13;2075707;28;20021;-72
2021/05/16 03:45:35;;;;;;;8.97;6.93;;;;;;;18.49;65.26;98955.81;2074057;28;20025;-73
2021/05/16 03:46:35;;;;;;;9.43;7.03;;;;;;;18.49;65.37;98955.81;2070206;28;20598;-73
2021/05/16 03:47:38;;;;;;;9.63;7.23;;;;;;;18.50;65.41;98960.28;2071718;28;20108;-72
2021/05/16 03:48:38;;;;;;;9.52;7.35;;;;;;;18.50;65.24;98959.41;2071394;28;20463;-73
2021/05/16 03:49:39;;;;;;;7.57;6.10;;;;;;;18.51;65.25;98961.13;2061224;28;20116;-73
2021/05/16 03:50:39;;;;;;;8.30;6.07;;;;;;;18.51;65.19;98956.50;2062045;28;20109;-72
2021/05/16 03:51:40;;;;;;;9.53;6.80;;;;;;;18.50;65.32;98953.97;2071892;28;20735;-72
2021/05/16 03:52:43;;;;;;;8.57;6.27;;;;;;;18.50;65.28;98953.97;2070331;28;20026;-73
2021/05/16 03:53:43;;;;;;;8.90;7.07;;;;;;;18.49;65.38;98952.25;2070766;28;20022;-73
2021/05/16 03:54:43;;;;;;;9.37;7.40;;;;;;;18.49;65.29;98944.06;2070176;28;20022;-73
2021/05/16 03:55:44;;;;;;;8.40;6.90;;;;;;;18.49;65.39;98941.31;2069342;28;20022;-73
2021/05/16 03:56:46;;;;;;;10.10;6.73;;;;;;;18.48;65.33;98951.41;2069770;28;20041;-73
2021/05/16 03:57:49;;;;;;;8.93;6.80;;;;;;;18.48;65.22;98940.47;2068798;28;20030;-73
2021/05/16 03:58:50;;;;;;;8.55;6.07;;;;;;;18.49;65.26;98933.13;2069802;28;20516;-73
2021/05/16 03:59:51;;;;;;;7.20;6.40;;;;;;;18.49;65.10;98935.88;2070365;28;20393;-73
2021/05/16 04:00:52;;;;;;;9.77;7.15;;;;;;;18.49;65.30;98933.13;2077174;28;20026;-73
2021/05/16 04:01:52;;;;;;;7.53;6.30;;;;;;;18.48;65.25;98936.91;2069714;28;20056;-73
2021/05/16 04:02:53;;;;;;;7.73;6.23;;;;;;;18.48;65.20;98934.19;2071615;28;20104;-73
2021/05/16 04:03:53;;;;;;;10.33;7.33;;;;;;;18.49;65.43;98938.59;2070534;28;20496;-73
2021/05/16 04:04:54;;;;;;;8.40;6.43;;;;;;;18.48;65.18;98929.56;2070153;28;20497;-72
2021/05/16 04:07:51;;;;;;;11.73;6.53;;;;;;;18.46;65.22;98936.22;2064875;28;20385;-73
2021/05/16 04:08:52;;;;;;;8.77;6.70;;;;;;;18.46;65.20;98930.78;2063215;28;20026;-73
2021/05/16 04:09:52;;;;;;;10.30;6.80;;;;;;;18.47;65.16;98932.47;2066663;28;20076;-73
2021/05/16 04:10:52;;;;;;;9.03;6.53;;;;;;;18.48;65.22;98928.72;2072184;28;20115;-73
2021/05/16 04:11:53;;;;;;;8.40;6.70;;;;;;;18.48;65.06;98936.91;2072651;28;20558;-73
2021/05/16 04:12:53;;;;;;;8.83;6.73;;;;;;;18.47;65.13;98943.38;2072538;28;20053;-73
2021/05/16 04:13:54;;;;;;;6.53;5.77;;;;;;;18.48;65.29;98945.94;2071663;28;20071;-73
2021/05/16 04:14:54;;;;;;;8.73;6.60;;;;;;;18.48;65.22;98945.09;2073495;28;20022;-73
2021/05/16 04:15:55;;;;;;;8.43;7.07;;;;;;;18.48;65.27;98939.63;2073686;28;20018;-73
2021/05/16 04:16:55;;;;;;;8.93;7.17;;;;;;;18.47;65.16;98943.38;2071524;28;20558;-72
2021/05/16 04:17:56;;;;;;;7.50;6.30;;;;;;;18.47;65.15;98935.19;2072421;28;20117;-73
2021/05/16 04:18:56;;;;;;;7.97;6.63;;;;;;;18.47;65.24;98933.34;2071512;28;20033;-73
2021/05/16 04:19:57;;;;;;;7.47;6.40;;;;;;;18.48;65.17;98934.19;2071851;28;20021;-73
2021/05/16 04:20:57;;;;;;;8.83;6.83;;;;;;;18.49;65.10;98941.31;2068924;28;20458;-73
2021/05/16 04:21:58;;;;;;;8.90;5.83;;;;;;;18.47;65.23;98932.47;2065856;28;20037;-73
2021/05/16 04:22:59;;;;;;;6.83;5.80;;;;;;;18.47;65.15;98927.88;2072234;28;20104;-72
2021/05/16 04:24:00;;;;;;;9.30;6.65;;;;;;;18.48;65.19;98928.72;2070665;28;20026;-73
2021/05/16 04:25:00;;;;;;;8.37;6.73;;;;;;;18.48;65.20;98923.25;2071625;28;20105;-73
2021/05/16 04:26:01;;;;;;;7.97;6.73;;;;;;;18.48;65.05;98923.25;2071198;28;20408;-73
2021/05/16 04:27:02;;;;;;;8.82;6.65;;;;;;;18.47;65.13;98921.53;2073998;28;20025;-73
2021/05/16 04:28:03;;;;;;;9.20;6.60;;;;;;;18.47;65.16;98921.53;2069846;28;20087;-73
2021/05/16 04:29:03;;;;;;;7.80;6.53;;;;;;;18.48;64.83;98924.09;2077703;28;20049;-73
2021/05/16 04:30:05;;;;;;;8.50;6.43;;;;;;;18.46;65.15;98922.59;2079157;28;20492;-73
2021/05/16 04:31:06;;;;;;;;;;;;;;;18.43;65.32;98921.91;2068891;28;20022;-73
2021/05/16 04:32:06;;;;;;;7.15;5.88;;;;;;;18.42;65.27;98928.41;2072134;28;19920;-73
2021/05/16 04:33:07;;;;;;;9.43;6.57;;;;;;;18.45;65.15;98929.03;2078452;28;20025;-73
2021/05/16 04:34:07;;;;;;;7.80;6.77;;;;;;;18.45;65.28;98929.03;2077504;28;20600;-73
2021/05/16 04:35:08;;;;;;;8.33;6.83;;;;;;;18.45;65.10;98929.03;2073093;28;20033;-72
2021/05/16 04:36:09;;;;;;;7.10;6.27;;;;;;;18.45;65.25;98929.94;2076459;28;20029;-72
2021/05/16 04:37:09;;;;;;;8.33;5.97;;;;;;;18.46;65.09;98928.88;2074926;28;20060;-72
2021/05/16 04:38:10;;;;;;;8.20;6.63;;;;;;;18.47;65.15;98929.72;2074003;28;20070;-72
2021/05/16 04:39:10;;;;;;;8.17;6.20;;;;;;;18.47;65.06;98933.34;2072215;28;20033;-72
2021/05/16 04:40:11;;;;;;;10.20;7.20;;;;;;;18.47;65.16;98927.00;2071550;28;20124;-72
2021/05/16 04:41:12;;;;;;;8.43;6.10;;;;;;;18.46;65.16;98931.63;2069760;28;20025;-73
2021/05/16 04:42:12;;;;;;;8.27;5.93;;;;;;;18.47;65.14;98932.47;2072617;28;20361;-72
2021/05/16 04:43:13;;;;;;;9.03;6.70;;;;;;;18.47;65.05;98929.72;2073205;28;20026;-72
2021/05/16 04:44:14;;;;;;;7.03;6.37;;;;;;;18.47;65.05;98927.00;2071347;28;20025;-73
2021/05/16 04:45:14;;;;;;;6.63;5.63;;;;;;;18.46;65.16;98936.22;2080332;28;20732;-72
2021/05/16 04:46:15;;;;;;;8.10;6.87;;;;;;;18.48;65.18;98931.44;2075910;28;20469;-72
2021/05/16 04:47:15;;;;;;;6.93;6.20;;;;;;;18.47;64.97;98937.91;2077484;28;20029;-73
2021/05/16 04:48:16;;;;;;;6.93;5.83;;;;;;;18.46;65.20;98931.63;2072029;28;20026;-72
2021/05/16 04:49:16;;;;;;;7.17;4.97;;;;;;;18.46;64.95;98928.88;2071518;28;20030;-73